Time;durP1;ratioP1;P1;durP2;ratioP2;P2;SDS_P1;SDS_P2;PMS_P1;PMS_P2;Temp;Humidity;BMP_temperature;BMP_pressure;BME280_temperature;BME280_humidity;BME280_pressure;Samples;Min_cycle;Max_cycle;Signal;HPM_P1;HPM_P2
2022/12/09 00:01:19;;;;;;;5.45;2.87;;;;;;;4.67;75.93;98706.97;4441400;32;35264;-77
2022/12/09 00:03:48;;;;;;;2.58;2.45;;;;;;;4.61;76.04;98720.72;4462712;32;33309;-78
2022/12/09 00:06:22;;;;;;;1.45;1.42;;;;;;;4.43;77.15;98711.19;4456627;32;33930;-77
2022/12/09 00:08:51;;;;;;;4.60;4.30;;;;;;;4.45;77.09;98704.34;4456857;32;35956;-75
2022/12/09 00:11:20;;;;;;;3.15;2.70;;;;;;;4.59;77.37;98699.22;4470478;32;34426;-77
2022/12/09 00:13:49;;;;;;;0.85;0.85;;;;;;;4.91;75.17;98701.00;4444825;32;34384;-77
2022/12/09 00:16:18;;;;;;;1.23;1.23;;;;;;;5.34;73.69;98702.78;4460427;32;33753;-72
2022/12/09 00:18:47;;;;;;;1.90;1.77;;;;;;;5.16;73.87;98713.94;4440925;32;34922;-78
2022/12/09 00:21:22;;;;;;;1.65;1.58;;;;;;;4.49;75.93;98720.66;4438096;32;34528;-77
2022/12/09 00:23:51;;;;;;;2.50;2.30;;;;;;;4.85;75.64;98727.66;4439334;32;33499;-78
2022/12/09 00:26:21;;;;;;;1.45;1.35;;;;;;;4.66;75.53;98723.28;4438290;32;33771;-77
2022/12/09 00:28:50;;;;;;;2.15;2.05;;;;;;;4.33;77.83;98730.91;4439258;32;35933;-77
2022/12/09 00:31:23;;;;;;;2.97;2.70;;;;;;;4.45;77.40;98724.09;4438599;32;34496;-77
2022/12/09 00:33:54;;;;;;;4.78;1.87;;;;;;;4.63;77.29;98728.47;4439539;32;34233;-72
2022/12/09 00:36:22;;;;;;;1.62;1.52;;;;;;;4.52;77.45;98726.69;4439281;32;34017;-72
2022/12/09 00:38:52;;;;;;;2.05;1.85;;;;;;;4.42;78.70;98721.50;4439132;32;36018;-74
2022/12/09 00:41:20;;;;;;;2.05;1.95;;;;;;;4.42;78.01;98724.94;4438110;32;33821;-78
2022/12/09 00:43:50;;;;;;;6.05;4.53;;;;;;;4.91;77.21;98719.06;4425546;32;31838;-78
2022/12/09 00:46:19;;;;;;;3.22;2.35;;;;;;;4.64;77.57;98718.16;4439191;32;34626;-78
2022/12/09 00:48:46;;;;;;;1.77;1.67;;;;;;;4.47;78.75;98717.22;4437886;32;35873;-78
2022/12/09 00:51:17;;;;;;;4.32;3.35;;;;;;;4.47;79.17;98722.38;4439121;32;34553;-77
2022/12/09 00:53:46;;;;;;;2.03;1.85;;;;;;;4.49;79.02;98720.66;4439229;32;32818;-77
2022/12/09 00:56:14;;;;;;;2.33;2.17;;;;;;;4.66;78.74;98726.75;4437758;32;34588;-77
2022/12/09 00:58:42;;;;;;;2.78;2.55;;;;;;;5.12;76.90;98724.25;4438993;32;35099;-77
2022/12/09 01:01:10;;;;;;;3.55;3.35;;;;;;;5.18;76.32;98738.03;4425377;32;34298;-78
2022/12/09 01:03:39;;;;;;;4.37;4.12;;;;;;;5.32;75.31;98731.16;4438927;32;33422;-78
2022/12/09 01:06:12;;;;;;;3.85;3.33;;;;;;;5.18;75.28;98738.03;4439319;32;34822;-77
2022/12/09 01:08:40;;;;;;;2.92;2.72;;;;;;;5.41;74.14;98741.47;4437891;32;34961;-72
2022/12/09 01:11:13;;;;;;;5.53;2.35;;;;;;;4.99;75.76;98738.00;4438948;32;34419;-78
2022/12/09 01:13:41;;;;;;;2.58;2.42;;;;;;;5.13;75.96;98736.31;4437795;32;34307;-73
2022/12/09 01:16:32;;;;;;;2.10;2.00;;;;;;;4.39;78.94;98726.63;4438883;32;33896;-77
2022/12/09 01:19:06;;;;;;;1.15;1.12;;;;;;;4.17;80.32;98732.56;4438939;32;35871;-77
2022/12/09 01:21:34;;;;;;;1.83;1.73;;;;;;;4.11;81.28;98726.50;4424868;32;33652;-77
2022/12/09 01:24:09;;;;;;;5.78;3.08;;;;;;;4.16;81.06;98722.25;4438752;32;33431;-78
2022/12/09 01:26:37;;;;;;;6.28;1.65;;;;;;;4.60;79.56;98720.69;4437584;32;34769;-78
2022/12/09 01:29:06;;;;;;;2.30;2.10;;;;;;;4.54;80.25;98729.28;4438724;32;35095;-78
2022/12/09 01:31:34;;;;;;;1.12;1.12;;;;;;;4.51;79.54;98729.28;4437495;32;34370;-77
2022/12/09 01:34:03;;;;;;;1.98;1.87;;;;;;;4.66;78.83;98718.13;4437686;32;34076;-72
2022/12/09 01:36:32;;;;;;;1.52;1.42;;;;;;;4.40;80.21;98712.91;4438600;32;34374;-72
2022/12/09 01:39:00;;;;;;;3.00;2.80;;;;;;;5.12;78.06;98711.34;4438415;32;35019;-78
2022/12/09 01:41:28;;;;;;;2.25;2.05;;;;;;;4.79;78.61;98704.41;4438515;32;35270;-77
2022/12/09 01:44:14;;;;;;;1.70;1.60;;;;;;;4.99;78.10;98701.00;4440472;32;34175;-77
2022/12/09 01:46:43;;;;;;;1.35;1.35;;;;;;;4.60;79.40;98708.66;4439311;32;33785;-73
2022/12/09 01:49:16;;;;;;;2.78;2.58;;;;;;;4.69;78.84;98719.00;4440372;32;35918;-77
2022/12/09 01:51:49;;;;;;;2.20;2.10;;;;;;;5.32;76.04;98710.50;4439520;32;35281;-72
2022/12/09 01:54:17;;;;;;;2.67;2.50;;;;;;;4.74;77.76;98717.28;4439256;32;33441;-72
2022/12/09 01:56:46;;;;;;;3.55;2.85;;;;;;;4.68;78.99;98722.44;4439490;32;33869;-75
2022/12/09 01:59:14;;;;;;;1.30;1.27;;;;;;;4.32;80.61;98716.31;4440584;32;35923;-77
2022/12/09 02:01:45;;;;;;;1.08;1.05;;;;;;;4.28;81.03;98714.56;4426649;32;33777;-72
2022/12/09 02:04:13;;;;;;;4.22;3.22;;;;;;;4.79;78.75;98713.87;4439382;32;34180;-77
2022/12/09 02:06:41;;;;;;;2.37;2.08;;;;;;;4.67;78.92;98715.56;4438507;32;34695;-74
2022/12/09 02:09:10;;;;;;;3.10;2.90;;;;;;;4.76;78.80;98714.72;4446702;32;35152;-78
2022/12/09 02:12:05;;;;;;;4.87;2.90;;;;;;;4.71;78.90;98704.41;4440372;32;34497;-77
2022/12/09 02:14:49;;;;;;;1.62;1.52;;;;;;;4.59;79.44;98700.91;4440210;32;33328;-72
2022/12/09 02:17:34;;;;;;;1.92;1.80;;;;;;;5.04;77.79;98695.00;4449564;32;33997;-73
2022/12/09 02:20:34;;;;;;;3.62;3.37;;;;;;;4.41;79.78;98701.72;4456941;32;35931;-72
2022/12/09 02:23:14;;;;;;;6.15;3.65;;;;;;;4.93;78.34;98694.12;4431256;32;33443;-72
2022/12/09 02:25:47;;;;;;;2.97;2.08;;;;;;;4.67;78.93;98692.34;4471196;32;33560;-72
2022/12/09 02:28:24;;;;;;;2.58;2.12;;;;;;;4.93;78.40;98694.12;4471472;32;33985;-78
2022/12/09 02:31:18;;;;;;;3.00;2.72;;;;;;;5.11;77.64;98688.13;4469439;32;34990;-72
2022/12/09 02:34:06;;;;;;;1.67;1.58;;;;;;;4.88;77.70;98690.69;4463981;32;34397;-78
2022/12/09 02:36:46;;;;;;;2.50;2.30;;;;;;;4.49;79.64;98700.03;4429085;32;33484;-77
2022/12/09 02:39:14;;;;;;;1.67;1.52;;;;;;;4.88;78.06;98691.53;4441743;32;34633;-74
2022/12/09 02:41:45;;;;;;;5.82;2.35;;;;;;;4.85;77.91;98682.94;4441680;32;35780;-71
2022/12/09 02:44:16;;;;;;;10.52;4.82;;;;;;;4.75;78.96;98685.50;4455720;32;33896;-75
2022/12/09 02:46:45;;;;;;;1.77;1.17;;;;;;;5.34;76.97;98682.97;4442069;32;33450;-77
2022/12/09 02:49:13;;;;;;;1.05;1.05;;;;;;;4.49;80.37;98690.59;4441818;32;34693;-78
2022/12/09 02:51:42;;;;;;;1.35;1.25;;;;;;;4.70;80.20;98689.78;4441627;32;35049;-78
2022/12/09 02:54:14;;;;;;;3.55;1.80;;;;;;;4.98;78.39;98683.81;4428684;32;34559;-77
2022/12/09 02:56:52;;;;;;;2.42;2.25;;;;;;;4.80;79.01;98679.47;4455377;32;33373;-72
2022/12/09 02:59:21;;;;;;;2.05;1.95;;;;;;;4.80;79.39;98679.47;4441866;32;34121;-78
2022/12/09 03:02:17;;;;;;;1.85;1.75;;;;;;;4.55;80.30;98684.59;4455464;32;34959;-79
2022/12/09 03:04:53;;;;;;;2.75;2.55;;;;;;;4.99;78.67;98683.81;4441575;32;34790;-78
2022/12/09 03:07:25;;;;;;;2.78;2.20;;;;;;;4.94;78.37;98678.66;4441619;32;33520;-78
2022/12/09 03:10:20;;;;;;;1.25;1.25;;;;;;;4.81;79.04;98676.06;4429034;32;34692;-78
2022/12/09 03:12:54;;;;;;;2.85;2.65;;;;;;;4.94;78.70;98676.09;4423640;32;34920;-78
2022/12/09 03:15:25;;;;;;;3.58;2.08;;;;;;;5.22;77.82;98672.66;4441540;32;34390;-71
2022/12/09 03:17:53;;;;;;;5.10;2.83;;;;;;;4.83;78.82;98685.50;4441473;32;33787;-73
2022/12/09 03:20:25;;;;;;;2.28;2.17;;;;;;;4.66;80.38;98688.06;4441750;32;34125;-72
2022/12/09 03:22:58;;;;;;;5.57;2.42;;;;;;;5.02;78.33;98691.56;4448850;32;35979;-72
2022/12/09 03:25:30;;;;;;;6.32;3.22;;;;;;;4.24;82.58;98687.06;4441381;32;35199;-78
2022/12/09 03:28:03;;;;;;;2.62;2.17;;;;;;;4.79;80.30;98686.38;4441427;32;33403;-78
2022/12/09 03:30:34;;;;;;;1.52;1.48;;;;;;;4.34;82.55;98694.00;4456752;32;34013;-74
2022/12/09 03:33:03;;;;;;;1.67;1.58;;;;;;;4.69;82.21;98688.06;4453412;32;34271;-73
2022/12/09 03:35:38;;;;;;;4.70;2.40;;;;;;;4.75;81.60;98680.34;4470901;32;34430;-78
2022/12/09 03:38:09;;;;;;;1.00;1.00;;;;;;;4.23;83.69;98687.06;4456754;32;33450;-77
2022/12/09 03:40:39;;;;;;;1.15;1.08;;;;;;;4.45;82.75;98682.84;4454986;32;34830;-78
2022/12/09 03:43:13;;;;;;;2.20;2.10;;;;;;;4.53;82.50;98675.97;4438475;32;35139;-78
2022/12/09 03:45:42;;;;;;;4.45;2.95;;;;;;;4.56;81.82;98676.84;4441221;32;34295;-78
2022/12/09 03:48:10;;;;;;;3.00;2.80;;;;;;;4.39;83.52;98677.66;4455194;32;33538;-78
2022/12/09 03:50:58;;;;;;;1.48;1.37;;;;;;;4.41;83.45;98683.69;4443919;32;33921;-78
2022/12/09 03:53:32;;;;;;;1.40;1.30;;;;;;;4.55;83.50;98679.44;4453229;32;34943;-78
2022/12/09 03:56:18;;;;;;;1.37;1.30;;;;;;;4.86;81.01;98685.50;4455101;32;34472;-72
2022/12/09 03:58:48;;;;;;;2.92;1.58;;;;;;;4.89;81.61;98672.63;4441245;32;33396;-78
2022/12/09 04:01:16;;;;;;;1.42;1.37;;;;;;;5.07;80.68;98679.53;4443729;32;34655;-77
2022/12/09 04:03:48;;;;;;;7.87;5.75;;;;;;;4.88;80.78;98672.63;4446532;32;35081;-78
2022/12/09 04:06:16;;;;;;;2.85;2.65;;;;;;;4.55;81.73;98667.41;4454036;32;34394;-75
2022/12/09 04:08:45;;;;;;;3.90;3.50;;;;;;;4.58;82.66;98668.28;4455013;32;34322;-78
2022/12/09 04:11:14;;;;;;;1.55;1.45;;;;;;;4.61;83.70;98674.31;4445999;32;34584;-75
2022/12/09 04:13:41;;;;;;;2.25;2.15;;;;;;;4.73;82.56;98674.31;4456664;32;35434;-78
2022/12/09 04:16:10;;;;;;;4.05;3.37;;;;;;;4.36;85.75;98663.91;4470449;32;34471;-77
2022/12/09 04:18:38;;;;;;;1.80;1.70;;;;;;;4.23;84.91;98662.13;4470476;32;33391;-78
2022/12/09 04:21:08;;;;;;;1.27;1.25;;;;;;;4.58;85.18;98660.53;4456390;32;34584;-77
2022/12/09 04:23:36;;;;;;;2.87;2.62;;;;;;;4.50;85.20;98661.38;4456439;32;34921;-76
2022/12/09 04:26:16;;;;;;;3.47;3.10;;;;;;;4.20;86.33;98657.00;4456944;32;34534;-78
2022/12/09 04:28:44;;;;;;;4.25;1.92;;;;;;;4.44;85.23;98661.34;4456581;32;33326;-75
2022/12/09 04:31:13;;;;;;;0.70;0.70;;;;;;;4.32;85.52;98667.34;4470345;32;34169;-75
2022/12/09 04:33:42;;;;;;;3.05;1.90;;;;;;;4.60;84.44;98663.97;4449589;32;35056;-78
2022/12/09 04:36:14;;;;;;;5.57;2.70;;;;;;;4.86;82.74;98664.88;4444959;32;35062;-78
2022/12/09 04:38:42;;;;;;;3.55;3.05;;;;;;;4.41;85.38;98647.59;4456249;32;33317;-78
2022/12/09 04:41:11;;;;;;;1.25;1.10;;;;;;;4.60;84.88;98651.94;4440809;32;33918;-78
2022/12/09 04:43:40;;;;;;;4.15;2.10;;;;;;;4.71;84.82;98646.78;4440824;32;35150;-78
2022/12/09 04:46:14;;;;;;;2.47;2.28;;;;;;;4.71;84.05;98654.53;4448913;32;35267;-78
2022/12/09 04:48:44;;;;;;;1.87;1.77;;;;;;;5.06;81.94;98646.81;4456391;32;33334;-72
2022/12/09 04:51:14;;;;;;;3.53;2.78;;;;;;;5.44;80.86;98651.13;4456378;32;34593;-73
2022/12/09 04:53:42;;;;;;;3.08;2.03;;;;;;;4.84;82.92;98658.00;4443483;32;35006;-78
2022/12/09 04:56:13;;;;;;;2.47;1.80;;;;;;;5.11;82.25;98649.41;4465533;32;35053;-78
2022/12/09 04:58:43;;;;;;;2.10;1.98;;;;;;;4.83;83.10;98653.69;4440811;32;34302;-77
2022/12/09 05:01:14;;;;;;;1.80;1.70;;;;;;;4.63;83.85;98656.25;4428169;32;33400;-78
2022/12/09 05:03:49;;;;;;;3.95;3.58;;;;;;;5.27;81.10;98639.94;4440850;32;35023;-77
2022/12/09 05:06:19;;;;;;;2.53;1.95;;;;;;;5.13;81.88;98651.16;4440196;32;33753;-77
2022/12/09 05:08:48;;;;;;;2.40;1.85;;;;;;;4.70;83.11;98652.84;4440708;32;33422;-78
2022/12/09 05:11:18;;;;;;;2.72;2.53;;;;;;;5.01;82.85;98652.84;4440537;32;34602;-77
2022/12/09 05:13:48;;;;;;;3.75;3.17;;;;;;;4.96;82.77;98650.28;4440654;32;35007;-78
2022/12/09 05:16:18;;;;;;;10.95;3.05;;;;;;;4.82;83.26;98651.97;4427522;32;33831;-78
2022/12/09 05:18:48;;;;;;;1.85;1.55;;;;;;;5.17;82.10;98644.28;4427714;32;33595;-78
2022/12/09 05:21:18;;;;;;;14.55;7.90;;;;;;;5.08;82.55;98634.81;4437427;32;33954;-76
2022/12/09 05:23:47;;;;;;;2.03;1.92;;;;;;;4.67;84.62;98640.78;4438686;32;34934;-77
2022/12/09 05:26:19;;;;;;;1.20;1.20;;;;;;;4.80;84.14;98635.63;4444218;32;34508;-78
2022/12/09 05:28:48;;;;;;;13.73;5.18;;;;;;;4.89;83.61;98638.25;4437711;32;34230;-78
2022/12/09 05:31:18;;;;;;;3.40;3.10;;;;;;;5.06;83.67;98641.66;4438641;32;33881;-77
2022/12/09 05:33:48;;;;;;;3.45;2.90;;;;;;;5.17;83.95;98643.38;4437488;32;35097;-78
2022/12/09 05:36:19;;;;;;;3.12;2.87;;;;;;;4.76;84.12;98650.25;4437334;32;34589;-73
2022/12/09 05:38:49;;;;;;;1.50;1.45;;;;;;;4.65;85.55;98649.38;4437467;32;34079;-78
2022/12/09 05:41:17;;;;;;;4.00;2.97;;;;;;;4.85;84.39;98636.50;4438575;32;33945;-72
2022/12/09 05:43:46;;;;;;;3.25;3.00;;;;;;;5.16;83.07;98637.37;4438345;32;35133;-77
2022/12/09 05:46:14;;;;;;;3.80;3.50;;;;;;;5.05;83.22;98633.94;4437138;32;34473;-72
2022/12/09 05:48:43;;;;;;;2.28;2.15;;;;;;;4.99;83.93;98626.19;4438379;32;34366;-75
2022/12/09 05:51:16;;;;;;;4.22;3.92;;;;;;;4.67;85.88;98630.47;4438302;32;34614;-78
2022/12/09 05:53:44;;;;;;;2.62;2.42;;;;;;;4.86;85.56;98623.59;4438342;32;35921;-77
2022/12/09 05:56:17;;;;;;;18.87;6.72;;;;;;;5.22;83.96;98626.19;4438175;32;34288;-76
2022/12/09 05:58:46;;;;;;;4.75;4.30;;;;;;;5.24;83.53;98627.91;4437178;32;33367;-78
2022/12/09 06:01:15;;;;;;;2.53;1.20;;;;;;;5.16;84.13;98616.72;4437128;32;33987;-71
2022/12/09 06:03:48;;;;;;;4.55;4.15;;;;;;;4.75;85.30;98621.03;4438240;32;34418;-78
2022/12/09 06:06:18;;;;;;;7.37;3.70;;;;;;;4.94;85.43;98618.44;4436988;32;34606;-76
2022/12/09 06:08:48;;;;;;;2.35;2.10;;;;;;;5.12;84.55;98626.19;4436999;32;32912;-78
2022/12/09 06:11:19;;;;;;;3.67;3.35;;;;;;;5.02;84.89;98623.63;4437035;32;33978;-77
2022/12/09 06:13:48;;;;;;;7.32;4.70;;;;;;;5.07;85.27;98616.75;4438030;32;35020;-77
2022/12/09 06:16:19;;;;;;;3.70;2.67;;;;;;;5.19;84.42;98615.84;4436790;32;34396;-71
2022/12/09 06:18:48;;;;;;;2.08;1.98;;;;;;;5.10;84.70;98617.59;4436863;32;33402;-77
2022/12/09 06:21:18;;;;;;;2.55;2.35;;;;;;;5.10;84.98;98617.59;4424115;32;33170;-73
2022/12/09 06:23:47;;;;;;;3.37;3.12;;;;;;;4.72;86.13;98621.00;4424048;32;33798;-77
2022/12/09 06:26:25;;;;;;;3.30;3.00;;;;;;;4.95;85.64;98615.00;4436649;32;34494;-78
2022/12/09 06:28:54;;;;;;;3.55;2.00;;;;;;;5.17;84.42;98617.59;4438028;32;33516;-72
2022/12/09 06:31:23;;;;;;;2.60;2.40;;;;;;;5.21;84.54;98614.16;4439067;32;34610;-78
2022/12/09 06:33:52;;;;;;;2.90;2.70;;;;;;;5.05;84.84;98619.31;4438896;32;35802;-77
2022/12/09 06:36:23;;;;;;;2.12;1.98;;;;;;;5.13;85.17;98622.78;4426741;32;35256;-78
2022/12/09 06:38:52;;;;;;;2.87;2.65;;;;;;;4.46;89.36;98628.69;4438975;32;34447;-78
2022/12/09 06:41:21;;;;;;;1.35;1.27;;;;;;;4.86;88.69;98615.03;4426347;32;33177;-77
2022/12/09 06:43:50;;;;;;;1.75;1.65;;;;;;;5.29;86.49;98617.56;4440032;32;36006;-78
2022/12/09 06:46:23;;;;;;;1.98;1.87;;;;;;;5.31;86.01;98619.31;4439123;32;33678;-71
2022/12/09 06:48:53;;;;;;;2.10;2.00;;;;;;;5.13;86.59;98612.44;4439019;32;33637;-72
2022/12/09 06:51:23;;;;;;;3.17;2.97;;;;;;;5.29;86.05;98612.41;4438925;32;35398;-78
2022/12/09 06:53:52;;;;;;;6.65;6.18;;;;;;;5.45;84.72;98606.37;4439923;32;35862;-78
2022/12/09 06:56:21;;;;;;;2.25;2.10;;;;;;;4.49;89.84;98610.66;4426212;32;35166;-77
2022/12/09 06:58:50;;;;;;;2.45;2.25;;;;;;;4.64;90.10;98606.37;4439954;32;33310;-78
2022/12/09 07:01:23;;;;;;;1.83;1.73;;;;;;;5.26;87.58;98608.13;4439888;32;33930;-76
2022/12/09 07:03:53;;;;;;;1.20;1.10;;;;;;;5.01;88.01;98602.12;4440215;32;36105;-77
2022/12/09 07:06:27;;;;;;;6.07;3.72;;;;;;;5.15;87.70;98601.25;4438560;32;34553;-76
2022/12/09 07:08:57;;;;;;;4.00;3.62;;;;;;;5.39;86.10;98597.78;4438802;32;32285;-71
2022/12/09 07:11:27;;;;;;;2.65;2.47;;;;;;;5.61;85.25;98598.56;4438730;32;33902;-77
2022/12/09 07:13:56;;;;;;;1.95;1.85;;;;;;;5.30;87.71;98603.81;4438644;32;34999;-75
2022/12/09 07:16:24;;;;;;;1.52;1.42;;;;;;;5.04;87.94;98601.25;4439737;32;35266;-77
2022/12/09 07:18:53;;;;;;;3.15;2.78;;;;;;;5.04;87.89;98594.38;4439798;32;34201;-77
2022/12/09 07:21:22;;;;;;;2.35;2.15;;;;;;;5.03;88.60;98595.25;4438434;32;34808;-77
2022/12/09 07:23:51;;;;;;;2.25;1.90;;;;;;;5.63;86.74;98599.41;4438643;32;35120;-78
2022/12/09 07:26:21;;;;;;;2.00;1.85;;;;;;;5.07;89.13;98599.53;4438611;32;34276;-78
2022/12/09 07:28:50;;;;;;;0.85;0.85;;;;;;;4.66;92.60;98604.66;4438574;32;32808;-79
2022/12/09 07:31:26;;;;;;;2.87;2.25;;;;;;;4.34;93.30;98601.19;4439804;32;33934;-72
2022/12/09 07:33:57;;;;;;;0.73;0.73;;;;;;;4.42;94.29;98605.50;4438527;32;35176;-80
2022/12/09 07:36:27;;;;;;;2.10;1.98;;;;;;;4.80;91.92;98597.81;4438548;32;34320;-72
2022/12/09 07:38:57;;;;;;;0.93;0.93;;;;;;;4.95;92.83;98596.94;4425961;32;32709;-84
2022/12/09 07:41:26;;;;;;;2.40;2.22;;;;;;;5.26;nan;98595.22;4438574;32;32970;-74
2022/12/09 07:43:55;;;;;;;2.22;2.05;;;;;;;4.74;93.66;98590.91;4438317;32;35753;-83
2022/12/09 07:46:27;;;;;;;1.12;1.12;;;;;;;4.70;93.53;98591.78;4438474;32;35392;-85
2022/12/09 07:48:56;;;;;;;2.50;2.37;;;;;;;5.09;93.06;98594.38;4438556;32;34136;-76
2022/12/09 07:51:25;;;;;;;34.03;3.08;;;;;;;5.09;92.07;98591.78;4426017;32;33959;-72
2022/12/09 07:53:54;;;;;;;1.08;1.08;;;;;;;5.04;90.96;98596.94;4439673;32;35011;-85
2022/12/09 07:56:23;;;;;;;3.28;3.08;;;;;;;4.99;92.07;98584.91;4438389;32;34380;-83
2022/12/09 07:58:53;;;;;;;0.75;0.75;;;;;;;5.23;91.34;98590.06;4438443;32;34102;-85
2022/12/09 08:01:25;;;;;;;5.53;4.32;;;;;;;5.48;91.20;98583.09;4439505;32;33973;-85
2022/12/09 08:03:55;;;;;;;1.12;1.10;;;;;;;5.55;89.55;98583.97;4438419;32;35917;-82
2022/12/09 08:06:26;;;;;;;5.90;4.03;;;;;;;5.56;89.45;98582.22;4438191;32;33714;-84
2022/12/09 08:09:03;;;;;;;2.42;1.52;;;;;;;5.61;89.78;98580.50;4438438;32;33412;-70
2022/12/09 08:11:33;;;;;;;1.92;1.83;;;;;;;5.29;90.50;98584.00;4438319;32;33991;-83
2022/12/09 08:14:06;;;;;;;6.47;4.12;;;;;;;5.06;92.45;98581.47;4425916;32;35997;-83
2022/12/09 08:16:40;;;;;;;1.50;1.42;;;;;;;5.28;91.25;98577.16;4438351;32;34962;-82
2022/12/09 08:19:11;;;;;;;0.80;0.80;;;;;;;5.26;91.89;98569.41;4439492;32;34346;-80
2022/12/09 08:21:41;;;;;;;2.72;2.53;;;;;;;5.18;92.67;98562.53;4452078;32;33768;-82
2022/12/09 08:24:10;;;;;;;4.53;2.05;;;;;;;5.30;92.32;98568.53;4454965;32;35907;-80
2022/12/09 08:26:40;;;;;;;1.15;0.80;;;;;;;5.53;90.53;98565.03;4441005;32;35184;-81
2022/12/09 08:29:10;;;;;;;1.10;1.10;;;;;;;5.44;91.39;98563.34;4454773;32;33496;-81
2022/12/09 08:31:41;;;;;;;1.45;1.42;;;;;;;5.47;92.01;98557.28;4441165;32;33836;-81
2022/12/09 08:34:10;;;;;;;3.42;2.33;;;;;;;5.51;92.49;98557.28;4441073;32;35190;-79
2022/12/09 08:36:41;;;;;;;1.20;1.10;;;;;;;5.88;88.82;98551.13;4454785;32;34441;-79
2022/12/09 08:39:11;;;;;;;1.62;1.52;;;;;;;5.86;89.77;98555.47;4441012;32;34302;-80
2022/12/09 08:41:40;;;;;;;2.28;2.15;;;;;;;5.97;88.91;98560.59;4454687;32;33877;-80
2022/12/09 08:44:14;;;;;;;4.43;4.00;;;;;;;5.73;89.83;98551.19;4440912;32;35088;-80
2022/12/09 08:46:48;;;;;;;4.95;3.15;;;;;;;5.63;91.09;98546.06;4440839;32;34376;-80
2022/12/09 08:49:20;;;;;;;1.12;1.12;;;;;;;5.59;91.00;98539.19;4440995;32;33425;-79
2022/12/09 08:51:51;;;;;;;1.23;1.15;;;;;;;5.24;91.52;98547.03;4440548;32;33884;-80
2022/12/09 08:54:20;;;;;;;1.80;1.70;;;;;;;5.69;91.39;98532.25;4454486;32;34958;-80
2022/12/09 08:56:51;;;;;;;1.50;1.30;;;;;;;5.81;89.21;98539.13;4454517;32;34402;-81
2022/12/09 08:59:20;;;;;;;1.00;1.00;;;;;;;5.72;89.79;98534.84;4440679;32;34121;-80
2022/12/09 09:01:48;;;;;;;2.10;1.58;;;;;;;5.43;91.27;98528.03;4440689;32;34642;-80
2022/12/09 09:04:19;;;;;;;3.83;3.20;;;;;;;5.79;90.06;98523.63;4440717;32;35036;-79
2022/12/09 09:06:49;;;;;;;2.97;2.75;;;;;;;5.97;88.90;98521.84;4440795;32;33656;-80
2022/12/09 09:09:19;;;;;;;2.42;1.30;;;;;;;5.32;90.50;98515.16;4440655;32;33381;-72
2022/12/09 09:11:48;;;;;;;1.77;1.67;;;;;;;4.94;93.66;98517.84;4454265;32;33852;-79
2022/12/09 09:14:17;;;;;;;1.10;1.10;;;;;;;5.78;90.51;98515.88;4440570;32;35117;-80
2022/12/09 09:16:45;;;;;;;3.75;3.28;;;;;;;5.58;91.14;98516.81;4454352;32;34730;-74
2022/12/09 09:19:20;;;;;;;1.65;1.55;;;;;;;5.60;90.64;98519.41;4440570;32;33370;-81
2022/12/09 09:21:49;;;;;;;4.28;1.10;;;;;;;5.46;91.37;98517.72;4437456;32;34631;-80
2022/12/09 09:24:20;;;;;;;1.08;1.08;;;;;;;4.94;94.53;98513.56;4437490;32;36002;-76
2022/12/09 09:26:50;;;;;;;1.50;1.40;;;;;;;5.31;93.06;98497.97;4437525;32;34516;-80
2022/12/09 09:29:19;;;;;;;1.87;1.75;;;;;;;5.56;92.54;98500.47;4438757;32;33554;-79
2022/12/09 09:31:52;;;;;;;1.17;1.17;;;;;;;5.63;90.49;98501.28;4438032;32;33827;-79
2022/12/09 09:34:23;;;;;;;1.20;1.20;;;;;;;5.64;90.43;98506.44;4438600;32;35070;-78
2022/12/09 09:36:53;;;;;;;1.17;1.10;;;;;;;5.86;89.41;98489.12;4437726;32;33802;-79
2022/12/09 09:39:22;;;;;;;1.10;1.08;;;;;;;5.82;89.64;98490.03;4425045;32;32028;-78
2022/12/09 09:42:02;;;;;;;1.30;1.30;;;;;;;5.65;90.24;98481.50;4438532;32;33811;-71
2022/12/09 09:44:43;;;;;;;1.35;1.25;;;;;;;5.95;89.00;98485.63;4437401;32;35795;-76
2022/12/09 09:47:16;;;;;;;1.48;1.30;;;;;;;5.86;89.67;98483.97;4437129;32;34415;-73
2022/12/09 09:49:50;;;;;;;0.85;0.85;;;;;;;5.83;89.29;98485.72;4437332;32;33321;-80
2022/12/09 09:52:21;;;;;;;1.33;1.25;;;;;;;6.04;88.04;98474.41;4437295;32;33850;-78
2022/12/09 09:54:50;;;;;;;1.08;1.00;;;;;;;5.75;90.61;98474.53;4438381;32;35085;-78
2022/12/09 09:57:32;;;;;;;9.07;5.85;;;;;;;5.81;90.05;98470.22;4437077;32;34354;-75
2022/12/09 10:00:07;;;;;;;1.62;1.35;;;;;;;6.03;88.51;98460.63;4438344;32;33384;-72
2022/12/09 10:03:08;;;;;;;3.03;1.87;;;;;;;5.94;89.65;98457.22;4437232;32;33305;-78
2022/12/09 10:05:59;;;;;;;2.17;1.95;;;;;;;6.02;88.34;98451.16;4438783;32;35717;-79
2022/12/09 10:08:30;;;;;;;6.20;3.53;;;;;;;5.57;90.14;98436.75;4439135;32;35094;-78
2022/12/09 10:11:20;;;;;;;2.03;1.90;;;;;;;5.79;89.66;98430.63;4439244;32;34225;-78
2022/12/09 10:13:55;;;;;;;1.12;1.12;;;;;;;5.80;88.71;98421.97;4439581;32;34510;-76
2022/12/09 10:16:51;;;;;;;3.20;2.50;;;;;;;5.98;89.45;98412.44;4438949;32;34503;-76
2022/12/09 10:19:29;;;;;;;3.20;1.67;;;;;;;6.00;89.27;98406.41;4452906;32;34354;-74
2022/12/09 10:22:10;;;;;;;1.15;1.08;;;;;;;5.85;88.96;98393.53;4454425;32;33488;-73
2022/12/09 10:24:56;;;;;;;6.93;6.28;;;;;;;6.13;88.09;98396.81;4454562;32;32983;-79
2022/12/09 10:27:37;;;;;;;1.83;1.73;;;;;;;5.97;88.82;98380.56;4454335;32;35033;-79
2022/12/09 10:30:08;;;;;;;1.48;1.37;;;;;;;5.70;90.42;98374.72;4441894;32;33186;-78
2022/12/09 10:32:47;;;;;;;4.72;2.55;;;;;;;5.66;90.58;98372.13;4453909;32;33402;-75
2022/12/09 10:35:41;;;;;;;1.40;1.30;;;;;;;5.79;89.98;98355.69;4454434;32;33406;-72
2022/12/09 10:38:20;;;;;;;1.17;1.12;;;;;;;6.01;88.78;98350.41;4454238;32;35416;-73
2022/12/09 10:40:56;;;;;;;3.40;2.72;;;;;;;6.11;88.10;98346.03;4454340;32;34416;-73
2022/12/09 10:43:33;;;;;;;1.23;1.20;;;;;;;5.57;90.56;98333.47;4454300;32;33459;-72
2022/12/09 10:46:22;;;;;;;4.50;2.35;;;;;;;5.30;92.15;98320.72;4454040;32;33162;-73
2022/12/09 10:48:56;;;;;;;0.93;0.93;;;;;;;5.73;91.21;98319.56;4454087;32;35866;-74
2022/12/09 10:51:28;;;;;;;0.93;0.93;;;;;;;5.61;90.39;98314.50;4454379;32;34488;-73
2022/12/09 10:54:10;;;;;;;1.52;1.42;;;;;;;5.59;90.69;98314.50;4454080;32;33499;-73
2022/12/09 10:57:13;;;;;;;1.85;1.70;;;;;;;5.70;90.53;98319.63;4455415;32;33918;-73
2022/12/09 10:59:59;;;;;;;2.28;1.33;;;;;;;5.25;92.47;98307.00;4455220;32;35885;-72
2022/12/09 11:02:29;;;;;;;1.45;1.25;;;;;;;5.64;92.11;98305.00;4454130;32;35068;-73
2022/12/09 11:05:20;;;;;;;1.80;1.70;;;;;;;5.44;91.82;98296.56;4454234;32;33450;-73
2022/12/09 11:07:51;;;;;;;0.98;0.98;;;;;;;5.59;90.97;98291.25;4455376;32;34743;-73
2022/12/09 11:10:22;;;;;;;1.33;1.23;;;;;;;5.83;90.91;98279.88;4455002;32;34319;-73
2022/12/09 11:12:54;;;;;;;4.62;2.78;;;;;;;5.83;90.30;98279.88;4454128;32;34293;-74
2022/12/09 11:15:36;;;;;;;1.15;1.15;;;;;;;5.76;90.93;98280.81;4453902;32;33351;-73
2022/12/09 11:18:12;;;;;;;1.05;1.05;;;;;;;5.72;91.38;98268.81;4453926;32;34652;-73
2022/12/09 11:20:42;;;;;;;;;;;;;;;5.67;91.15;98262.81;4441585;32;35023;-71
2022/12/09 11:23:18;;;;;;;0.73;0.73;;;;;;;5.67;91.39;98262.81;4432907;32;34625;-73
2022/12/09 11:25:56;;;;;;;0.88;0.88;;;;;;;5.79;90.84;98262.72;4455236;32;34478;-75
2022/12/09 11:28:39;;;;;;;9.18;5.05;;;;;;;5.95;90.73;98273.75;4453900;32;33932;-74
2022/12/09 11:31:19;;;;;;;5.00;4.60;;;;;;;5.44;92.52;98265.59;4449889;32;35009;-75
2022/12/09 11:34:03;;;;;;;1.62;1.52;;;;;;;5.59;92.22;98274.91;4446610;32;35210;-74
2022/12/09 11:36:42;;;;;;;5.45;4.30;;;;;;;5.83;90.93;98263.53;4454053;32;33296;-75
2022/12/09 11:39:23;;;;;;;2.35;2.15;;;;;;;5.63;92.71;98258.53;4453862;32;33805;-76
2022/12/09 11:42:16;;;;;;;1.37;1.35;;;;;;;5.71;93.25;98256.75;4439835;32;35006;-74
2022/12/09 11:45:05;;;;;;;1.58;1.50;;;;;;;5.65;93.01;98254.22;4451335;32;34589;-75
2022/12/09 11:47:43;;;;;;;2.20;2.05;;;;;;;5.99;92.11;98253.94;4453884;32;33438;-77
2022/12/09 11:50:31;;;;;;;;;;;;;;;6.14;90.24;98246.03;4445386;32;33900;-74
2022/12/09 11:53:09;;;;;;;1.67;1.58;;;;;;;5.83;90.56;98242.88;4439503;32;36332;-75
2022/12/09 11:55:52;;;;;;;7.53;2.78;;;;;;;6.16;90.26;98236.53;4455046;32;34359;-74
2022/12/09 11:58:48;;;;;;;0.93;0.88;;;;;;;5.78;90.74;98235.16;4453628;32;33341;-75
2022/12/09 12:01:23;;;;;;;8.43;2.97;;;;;;;5.81;91.47;98224.78;4454854;32;34746;-74
2022/12/09 12:03:55;;;;;;;0.93;0.93;;;;;;;6.13;90.77;98215.03;4454845;32;35026;-76
2022/12/09 12:06:45;;;;;;;1.27;1.23;;;;;;;6.15;90.75;98203.81;4453765;32;35125;-75
2022/12/09 12:09:24;;;;;;;2.25;2.15;;;;;;;5.79;91.68;98205.88;4438489;32;33551;-73